sensor_id;sensor_type;location;lat;lon;timestamp;temperature;humidity
35027;DHT22;60696;51.426;6.934;2022-12-17T00:01:45;-0.50;99.90
35027;DHT22;60696;51.426;6.934;2022-12-17T00:04:29;-0.50;99.90
35027;DHT22;60696;51.426;6.934;2022-12-17T00:07:13;-0.50;99.90
35027;DHT22;60696;51.426;6.934;2022-12-17T00:09:57;-0.40;99.90
35027;DHT22;60696;51.426;6.934;2022-12-17T00:12:41;-0.40;99.90
35027;DHT22;60696;51.426;6.934;2022-12-17T00:15:25;-0.70;99.90
35027;DHT22;60696;51.426;6.934;2022-12-17T00:18:09;-0.70;99.90
35027;DHT22;60696;51.426;6.934;2022-12-17T00:20:59;-0.80;99.90
35027;DHT22;60696;51.426;6.934;2022-12-17T00:23:44;-1.00;99.90
35027;DHT22;60696;51.426;6.934;2022-12-17T00:26:28;-0.80;99.90
35027;DHT22;60696;51.426;6.934;2022-12-17T00:29:12;-0.80;99.90
35027;DHT22;60696;51.426;6.934;2022-12-17T00:31:57;-0.80;99.90
35027;DHT22;60696;51.426;6.934;2022-12-17T00:34:41;-0.80;99.90
35027;DHT22;60696;51.426;6.934;2022-12-17T00:37:25;-0.70;99.90
35027;DHT22;60696;51.426;6.934;2022-12-17T00:40:10;-0.70;99.90
35027;DHT22;60696;51.426;6.934;2022-12-17T00:43:04;-0.70;99.90
35027;DHT22;60696;51.426;6.934;2022-12-17T00:45:49;-0.70;99.90
35027;DHT22;60696;51.426;6.934;2022-12-17T00:48:33;-0.60;99.90
35027;DHT22;60696;51.426;6.934;2022-12-17T00:51:17;-0.60;99.90
35027;DHT22;60696;51.426;6.934;2022-12-17T00:54:02;-0.50;99.90
35027;DHT22;60696;51.426;6.934;2022-12-17T00:56:46;-0.70;99.90
35027;DHT22;60696;51.426;6.934;2022-12-17T00:59:30;-0.70;99.90
35027;DHT22;60696;51.426;6.934;2022-12-17T01:02:14;-0.70;99.90
35027;DHT22;60696;51.426;6.934;2022-12-17T01:04:58;-0.70;99.90
35027;DHT22;60696;51.426;6.934;2022-12-17T01:07:42;-0.70;99.90
35027;DHT22;60696;51.426;6.934;2022-12-17T01:10:26;-0.80;99.90
35027;DHT22;60696;51.426;6.934;2022-12-17T01:13:14;-0.80;99.90
35027;DHT22;60696;51.426;6.934;2022-12-17T01:16:07;-0.80;99.90
35027;DHT22;60696;51.426;6.934;2022-12-17T01:18:52;-0.70;99.90
35027;DHT22;60696;51.426;6.934;2022-12-17T01:21:37;-0.60;99.90
35027;DHT22;60696;51.426;6.934;2022-12-17T01:24:22;-0.60;99.90
35027;DHT22;60696;51.426;6.934;2022-12-17T01:27:06;-0.70;99.90
35027;DHT22;60696;51.426;6.934;2022-12-17T01:29:50;-0.70;99.90
35027;DHT22;60696;51.426;6.934;2022-12-17T01:32:34;-0.70;99.90
35027;DHT22;60696;51.426;6.934;2022-12-17T01:35:18;-0.90;99.90
35027;DHT22;60696;51.426;6.934;2022-12-17T01:38:10;-0.80;99.90
35027;DHT22;60696;51.426;6.934;2022-12-17T01:40:55;-0.80;99.90
35027;DHT22;60696;51.426;6.934;2022-12-17T01:43:39;-0.80;99.90
35027;DHT22;60696;51.426;6.934;2022-12-17T01:46:25;-0.80;99.90
35027;DHT22;60696;51.426;6.934;2022-12-17T01:49:11;-1.00;99.90
35027;DHT22;60696;51.426;6.934;2022-12-17T01:51:56;-1.10;99.90
35027;DHT22;60696;51.426;6.934;2022-12-17T01:54:44;-1.20;99.90
35027;DHT22;60696;51.426;6.934;2022-12-17T01:57:29;-1.30;99.90
35027;DHT22;60696;51.426;6.934;2022-12-17T02:00:15;-1.20;99.90
35027;DHT22;60696;51.426;6.934;2022-12-17T02:03:00;-1.20;99.90
35027;DHT22;60696;51.426;6.934;2022-12-17T02:14:44;-1.00;99.90
35027;DHT22;60696;51.426;6.934;2022-12-17T02:17:37;-1.10;99.90
35027;DHT22;60696;51.426;6.934;2022-12-17T02:20:33;-1.10;99.90
35027;DHT22;60696;51.426;6.934;2022-12-17T02:29:25;-1.40;99.90
35027;DHT22;60696;51.426;6.934;2022-12-17T02:32:12;-1.30;99.90
35027;DHT22;60696;51.426;6.934;2022-12-17T02:34:59;-1.30;99.90
35027;DHT22;60696;51.426;6.934;2022-12-17T02:37:48;-1.30;99.90
35027;DHT22;60696;51.426;6.934;2022-12-17T02:40:34;-1.30;99.90
35027;DHT22;60696;51.426;6.934;2022-12-17T02:43:19;-1.40;99.90
35027;DHT22;60696;51.426;6.934;2022-12-17T02:46:04;-1.50;99.90
35027;DHT22;60696;51.426;6.934;2022-12-17T02:48:49;-1.40;99.90
35027;DHT22;60696;51.426;6.934;2022-12-17T02:51:33;-1.40;99.90
35027;DHT22;60696;51.426;6.934;2022-12-17T02:54:17;-1.30;99.90
35027;DHT22;60696;51.426;6.934;2022-12-17T02:57:01;-1.20;99.90
35027;DHT22;60696;51.426;6.934;2022-12-17T02:59:45;-1.20;99.90
35027;DHT22;60696;51.426;6.934;2022-12-17T03:02:29;-1.30;99.90
35027;DHT22;60696;51.426;6.934;2022-12-17T03:05:13;-1.50;99.90
35027;DHT22;60696;51.426;6.934;2022-12-17T03:07:57;-1.50;99.90
35027;DHT22;60696;51.426;6.934;2022-12-17T03:10:41;-1.30;99.90
35027;DHT22;60696;51.426;6.934;2022-12-17T03:13:27;-1.30;99.90
35027;DHT22;60696;51.426;6.934;2022-12-17T03:16:14;-1.20;99.90
35027;DHT22;60696;51.426;6.934;2022-12-17T03:18:59;-1.40;99.90
35027;DHT22;60696;51.426;6.934;2022-12-17T03:21:43;-1.60;99.90
35027;DHT22;60696;51.426;6.934;2022-12-17T03:24:27;-1.60;99.90
35027;DHT22;60696;51.426;6.934;2022-12-17T03:27:11;-1.60;99.90
35027;DHT22;60696;51.426;6.934;2022-12-17T03:29:56;-1.50;99.90
35027;DHT22;60696;51.426;6.934;2022-12-17T03:32:40;-1.40;99.90
35027;DHT22;60696;51.426;6.934;2022-12-17T03:35:24;-1.30;99.90
35027;DHT22;60696;51.426;6.934;2022-12-17T03:38:09;-1.40;99.90
35027;DHT22;60696;51.426;6.934;2022-12-17T03:40:54;-1.40;99.90
35027;DHT22;60696;51.426;6.934;2022-12-17T03:43:38;-1.40;99.90
35027;DHT22;60696;51.426;6.934;2022-12-17T03:46:23;-1.40;99.90
35027;DHT22;60696;51.426;6.934;2022-12-17T03:49:07;-1.20;99.90
35027;DHT22;60696;51.426;6.934;2022-12-17T03:51:52;-1.20;99.90
35027;DHT22;60696;51.426;6.934;2022-12-17T03:54:36;-1.20;99.90
35027;DHT22;60696;51.426;6.934;2022-12-17T03:57:20;-1.20;99.90
35027;DHT22;60696;51.426;6.934;2022-12-17T04:00:05;-1.10;99.90
35027;DHT22;60696;51.426;6.934;2022-12-17T04:02:49;-1.00;99.90
35027;DHT22;60696;51.426;6.934;2022-12-17T04:05:33;-1.00;99.90
35027;DHT22;60696;51.426;6.934;2022-12-17T04:08:18;-1.00;99.90
35027;DHT22;60696;51.426;6.934;2022-12-17T04:11:03;-1.00;99.90
35027;DHT22;60696;51.426;6.934;2022-12-17T04:13:47;-1.00;99.90
35027;DHT22;60696;51.426;6.934;2022-12-17T04:16:31;-1.00;99.90
35027;DHT22;60696;51.426;6.934;2022-12-17T04:19:15;-0.90;99.90
35027;DHT22;60696;51.426;6.934;2022-12-17T04:21:59;-0.90;99.90
35027;DHT22;60696;51.426;6.934;2022-12-17T04:24:43;-1.00;99.90
35027;DHT22;60696;51.426;6.934;2022-12-17T04:27:27;-0.90;99.90
35027;DHT22;60696;51.426;6.934;2022-12-17T04:30:11;-1.00;99.90
35027;DHT22;60696;51.426;6.934;2022-12-17T04:32:55;-1.00;99.90
35027;DHT22;60696;51.426;6.934;2022-12-17T04:35:39;-1.00;99.90
35027;DHT22;60696;51.426;6.934;2022-12-17T04:38:23;-1.00;99.90
35027;DHT22;60696;51.426;6.934;2022-12-17T04:41:07;-1.00;99.90
35027;DHT22;60696;51.426;6.934;2022-12-17T04:43:51;-1.00;99.90
35027;DHT22;60696;51.426;6.934;2022-12-17T04:46:35;-0.90;99.90
35027;DHT22;60696;51.426;6.934;2022-12-17T04:49:19;-0.80;99.90
35027;DHT22;60696;51.426;6.934;2022-12-17T04:52:04;-0.90;99.90
35027;DHT22;60696;51.426;6.934;2022-12-17T04:54:48;-0.90;99.90
35027;DHT22;60696;51.426;6.934;2022-12-17T04:57:32;-1.00;99.90
35027;DHT22;60696;51.426;6.934;2022-12-17T05:00:16;-1.10;99.90
35027;DHT22;60696;51.426;6.934;2022-12-17T05:03:12;-1.30;99.90
35027;DHT22;60696;51.426;6.934;2022-12-17T05:05:56;-1.30;99.90
35027;DHT22;60696;51.426;6.934;2022-12-17T05:08:40;-1.40;99.90
35027;DHT22;60696;51.426;6.934;2022-12-17T05:11:24;-1.30;99.90
35027;DHT22;60696;51.426;6.934;2022-12-17T05:14:09;-1.30;99.90
35027;DHT22;60696;51.426;6.934;2022-12-17T05:16:53;-1.30;99.90
35027;DHT22;60696;51.426;6.934;2022-12-17T05:19:37;-1.20;99.90
35027;DHT22;60696;51.426;6.934;2022-12-17T05:22:21;-1.30;99.90
35027;DHT22;60696;51.426;6.934;2022-12-17T05:25:06;-1.30;99.90
35027;DHT22;60696;51.426;6.934;2022-12-17T05:27:50;-1.30;99.90
35027;DHT22;60696;51.426;6.934;2022-12-17T05:30:34;-1.40;99.90
35027;DHT22;60696;51.426;6.934;2022-12-17T05:33:18;-1.30;99.90
35027;DHT22;60696;51.426;6.934;2022-12-17T05:36:03;-1.30;99.90
35027;DHT22;60696;51.426;6.934;2022-12-17T05:38:48;-1.30;99.90
35027;DHT22;60696;51.426;6.934;2022-12-17T05:41:33;-1.50;99.90
35027;DHT22;60696;51.426;6.934;2022-12-17T05:44:17;-1.30;99.90
35027;DHT22;60696;51.426;6.934;2022-12-17T05:47:01;-1.20;99.90
35027;DHT22;60696;51.426;6.934;2022-12-17T05:49:45;-1.20;99.90
35027;DHT22;60696;51.426;6.934;2022-12-17T05:52:29;-1.20;99.90
35027;DHT22;60696;51.426;6.934;2022-12-17T05:55:13;-1.20;99.90
35027;DHT22;60696;51.426;6.934;2022-12-17T05:58:04;-1.20;99.90
35027;DHT22;60696;51.426;6.934;2022-12-17T06:00:48;-1.30;99.90
35027;DHT22;60696;51.426;6.934;2022-12-17T06:03:32;-1.20;99.90
35027;DHT22;60696;51.426;6.934;2022-12-17T06:06:16;-1.30;99.90
35027;DHT22;60696;51.426;6.934;2022-12-17T06:09:00;-1.50;99.90
35027;DHT22;60696;51.426;6.934;2022-12-17T06:11:45;-1.50;99.90
35027;DHT22;60696;51.426;6.934;2022-12-17T06:14:29;-1.50;99.90
35027;DHT22;60696;51.426;6.934;2022-12-17T06:17:13;-1.70;99.90
35027;DHT22;60696;51.426;6.934;2022-12-17T06:19:57;-1.60;99.90
35027;DHT22;60696;51.426;6.934;2022-12-17T06:22:41;-1.70;99.90
35027;DHT22;60696;51.426;6.934;2022-12-17T06:25:25;-1.50;99.90
35027;DHT22;60696;51.426;6.934;2022-12-17T06:28:09;-1.40;99.90
35027;DHT22;60696;51.426;6.934;2022-12-17T06:30:53;-1.30;99.90
35027;DHT22;60696;51.426;6.934;2022-12-17T06:33:38;-1.30;99.90
35027;DHT22;60696;51.426;6.934;2022-12-17T06:36:23;-1.30;99.90
35027;DHT22;60696;51.426;6.934;2022-12-17T06:39:08;-1.30;99.90
35027;DHT22;60696;51.426;6.934;2022-12-17T06:41:52;-1.30;99.90
35027;DHT22;60696;51.426;6.934;2022-12-17T06:44:36;-1.40;99.90
35027;DHT22;60696;51.426;6.934;2022-12-17T06:47:23;-1.50;99.90
35027;DHT22;60696;51.426;6.934;2022-12-17T06:50:07;-1.60;99.90
35027;DHT22;60696;51.426;6.934;2022-12-17T06:53:02;-1.50;99.90
35027;DHT22;60696;51.426;6.934;2022-12-17T06:55:47;-1.60;99.90
35027;DHT22;60696;51.426;6.934;2022-12-17T06:58:31;-1.70;99.90
35027;DHT22;60696;51.426;6.934;2022-12-17T07:01:15;-1.60;99.90
35027;DHT22;60696;51.426;6.934;2022-12-17T07:03:59;-1.50;99.90
35027;DHT22;60696;51.426;6.934;2022-12-17T07:06:45;-1.40;99.90
35027;DHT22;60696;51.426;6.934;2022-12-17T07:09:30;-1.40;99.90
35027;DHT22;60696;51.426;6.934;2022-12-17T07:12:14;-1.30;99.90
35027;DHT22;60696;51.426;6.934;2022-12-17T07:14:58;-1.30;99.90
35027;DHT22;60696;51.426;6.934;2022-12-17T07:17:42;-1.30;99.90
35027;DHT22;60696;51.426;6.934;2022-12-17T07:20:26;-1.30;99.90
35027;DHT22;60696;51.426;6.934;2022-12-17T07:23:10;-1.30;99.90
35027;DHT22;60696;51.426;6.934;2022-12-17T07:25:56;-1.40;99.90
35027;DHT22;60696;51.426;6.934;2022-12-17T07:28:40;-1.50;99.90
35027;DHT22;60696;51.426;6.934;2022-12-17T07:31:24;-1.60;99.90
35027;DHT22;60696;51.426;6.934;2022-12-17T07:34:08;-1.50;99.90
35027;DHT22;60696;51.426;6.934;2022-12-17T07:36:52;-1.50;99.90
35027;DHT22;60696;51.426;6.934;2022-12-17T07:39:36;-1.80;99.90
35027;DHT22;60696;51.426;6.934;2022-12-17T07:42:20;-1.60;99.90
35027;DHT22;60696;51.426;6.934;2022-12-17T07:45:04;-1.50;99.90
35027;DHT22;60696;51.426;6.934;2022-12-17T07:47:53;-1.40;99.90
35027;DHT22;60696;51.426;6.934;2022-12-17T07:50:37;-1.50;99.90
35027;DHT22;60696;51.426;6.934;2022-12-17T07:53:21;-1.80;99.90
35027;DHT22;60696;51.426;6.934;2022-12-17T07:56:05;-1.80;99.90
35027;DHT22;60696;51.426;6.934;2022-12-17T07:58:49;-1.60;99.90
35027;DHT22;60696;51.426;6.934;2022-12-17T08:01:33;-1.60;99.90
35027;DHT22;60696;51.426;6.934;2022-12-17T08:04:17;-1.60;99.90
35027;DHT22;60696;51.426;6.934;2022-12-17T08:07:02;-1.60;99.90
35027;DHT22;60696;51.426;6.934;2022-12-17T08:09:46;-1.50;99.90
35027;DHT22;60696;51.426;6.934;2022-12-17T08:12:30;-1.60;99.90
35027;DHT22;60696;51.426;6.934;2022-12-17T08:15:14;-1.70;99.90
35027;DHT22;60696;51.426;6.934;2022-12-17T08:18:00;-1.70;99.90
35027;DHT22;60696;51.426;6.934;2022-12-17T08:20:44;-1.70;99.90
35027;DHT22;60696;51.426;6.934;2022-12-17T08:23:28;-1.80;99.90
35027;DHT22;60696;51.426;6.934;2022-12-17T08:26:14;-1.70;99.90
35027;DHT22;60696;51.426;6.934;2022-12-17T08:28:58;-1.60;99.90
35027;DHT22;60696;51.426;6.934;2022-12-17T08:31:42;-1.60;99.90
35027;DHT22;60696;51.426;6.934;2022-12-17T08:34:26;-1.50;99.90
35027;DHT22;60696;51.426;6.934;2022-12-17T08:37:10;-1.50;99.90
35027;DHT22;60696;51.426;6.934;2022-12-17T08:39:54;-1.50;99.90
35027;DHT22;60696;51.426;6.934;2022-12-17T08:42:38;-1.60;99.90
35027;DHT22;60696;51.426;6.934;2022-12-17T08:45:22;-1.80;99.90
35027;DHT22;60696;51.426;6.934;2022-12-17T08:48:07;-2.10;99.90
35027;DHT22;60696;51.426;6.934;2022-12-17T08:50:51;-2.10;99.90
35027;DHT22;60696;51.426;6.934;2022-12-17T08:53:36;-2.10;99.90
35027;DHT22;60696;51.426;6.934;2022-12-17T08:56:21;-2.30;99.90
35027;DHT22;60696;51.426;6.934;2022-12-17T08:59:05;-2.10;99.90
35027;DHT22;60696;51.426;6.934;2022-12-17T09:01:50;-2.10;99.90
35027;DHT22;60696;51.426;6.934;2022-12-17T09:04:34;-2.00;99.90
35027;DHT22;60696;51.426;6.934;2022-12-17T09:07:18;-1.90;99.90
35027;DHT22;60696;51.426;6.934;2022-12-17T09:10:03;-1.80;99.90
35027;DHT22;60696;51.426;6.934;2022-12-17T09:12:47;-1.80;99.90
35027;DHT22;60696;51.426;6.934;2022-12-17T09:15:31;-1.90;99.90
35027;DHT22;60696;51.426;6.934;2022-12-17T09:18:20;-2.30;99.90
35027;DHT22;60696;51.426;6.934;2022-12-17T09:21:05;-2.50;99.90
35027;DHT22;60696;51.426;6.934;2022-12-17T09:23:54;-2.40;99.90
35027;DHT22;60696;51.426;6.934;2022-12-17T09:26:38;-2.10;99.90
35027;DHT22;60696;51.426;6.934;2022-12-17T09:29:23;-2.00;99.90
35027;DHT22;60696;51.426;6.934;2022-12-17T09:32:07;-1.80;99.90
35027;DHT22;60696;51.426;6.934;2022-12-17T09:34:51;-1.70;99.90
35027;DHT22;60696;51.426;6.934;2022-12-17T09:37:35;-1.80;99.90
35027;DHT22;60696;51.426;6.934;2022-12-17T09:40:22;-1.60;99.90
35027;DHT22;60696;51.426;6.934;2022-12-17T09:49:16;-1.90;99.90
35027;DHT22;60696;51.426;6.934;2022-12-17T09:52:25;-1.80;99.90
35027;DHT22;60696;51.426;6.934;2022-12-17T09:55:22;-1.70;99.90
35027;DHT22;60696;51.426;6.934;2022-12-17T09:58:23;-1.70;99.90
35027;DHT22;60696;51.426;6.934;2022-12-17T10:01:16;-1.70;99.90
35027;DHT22;60696;51.426;6.934;2022-12-17T10:04:02;-1.60;99.90
35027;DHT22;60696;51.426;6.934;2022-12-17T10:06:47;-1.70;99.90
35027;DHT22;60696;51.426;6.934;2022-12-17T10:09:32;-1.80;99.90
35027;DHT22;60696;51.426;6.934;2022-12-17T10:12:18;-2.00;99.90
35027;DHT22;60696;51.426;6.934;2022-12-17T10:15:04;-2.30;99.90
35027;DHT22;60696;51.426;6.934;2022-12-17T10:17:48;-2.20;99.90
35027;DHT22;60696;51.426;6.934;2022-12-17T10:20:50;-2.30;99.90
35027;DHT22;60696;51.426;6.934;2022-12-17T10:23:36;-2.40;99.90
35027;DHT22;60696;51.426;6.934;2022-12-17T10:26:24;-2.00;99.90
35027;DHT22;60696;51.426;6.934;2022-12-17T10:29:32;-1.80;99.90
35027;DHT22;60696;51.426;6.934;2022-12-17T10:32:18;-1.80;99.90
35027;DHT22;60696;51.426;6.934;2022-12-17T10:35:07;-1.80;99.90
35027;DHT22;60696;51.426;6.934;2022-12-17T10:37:52;-1.70;99.90
35027;DHT22;60696;51.426;6.934;2022-12-17T10:40:36;-1.60;99.90
35027;DHT22;60696;51.426;6.934;2022-12-17T10:43:32;-1.60;99.90
35027;DHT22;60696;51.426;6.934;2022-12-17T10:46:23;-1.70;99.90
35027;DHT22;60696;51.426;6.934;2022-12-17T10:49:14;-1.90;99.90
35027;DHT22;60696;51.426;6.934;2022-12-17T10:52:00;-2.10;99.90
35027;DHT22;60696;51.426;6.934;2022-12-17T10:55:00;-2.00;99.90
35027;DHT22;60696;51.426;6.934;2022-12-17T10:57:46;-2.00;99.90
35027;DHT22;60696;51.426;6.934;2022-12-17T11:00:33;-2.00;99.90
35027;DHT22;60696;51.426;6.934;2022-12-17T11:06:12;-2.10;99.90
35027;DHT22;60696;51.426;6.934;2022-12-17T11:08:59;-2.00;99.90
35027;DHT22;60696;51.426;6.934;2022-12-17T11:11:45;-2.00;99.90
35027;DHT22;60696;51.426;6.934;2022-12-17T11:14:44;-2.10;99.90
35027;DHT22;60696;51.426;6.934;2022-12-17T11:17:29;-2.20;99.90
35027;DHT22;60696;51.426;6.934;2022-12-17T11:20:25;-2.30;99.90
35027;DHT22;60696;51.426;6.934;2022-12-17T11:23:21;-2.50;99.90
35027;DHT22;60696;51.426;6.934;2022-12-17T11:26:11;-2.40;99.90
35027;DHT22;60696;51.426;6.934;2022-12-17T11:29:00;-2.50;99.90
35027;DHT22;60696;51.426;6.934;2022-12-17T11:34:59;-2.80;99.90
35027;DHT22;60696;51.426;6.934;2022-12-17T11:41:16;-2.60;99.90
35027;DHT22;60696;51.426;6.934;2022-12-17T11:44:18;-2.70;99.90
35027;DHT22;60696;51.426;6.934;2022-12-17T11:47:19;-2.60;99.90
35027;DHT22;60696;51.426;6.934;2022-12-17T11:56:25;-2.80;99.90
35027;DHT22;60696;51.426;6.934;2022-12-17T12:05:48;-3.20;99.90
35027;DHT22;60696;51.426;6.934;2022-12-17T12:11:56;-2.90;99.90
35027;DHT22;60696;51.426;6.934;2022-12-17T12:18:04;-3.40;99.90
35027;DHT22;60696;51.426;6.934;2022-12-17T12:27:50;-3.40;99.90
35027;DHT22;60696;51.426;6.934;2022-12-17T12:33:49;-3.10;99.90
35027;DHT22;60696;51.426;6.934;2022-12-17T12:36:38;-3.10;99.90
35027;DHT22;60696;51.426;6.934;2022-12-17T12:39:33;-3.00;99.90
35027;DHT22;60696;51.426;6.934;2022-12-17T12:42:42;-3.00;99.90
35027;DHT22;60696;51.426;6.934;2022-12-17T12:48:37;-2.90;99.90
35027;DHT22;60696;51.426;6.934;2022-12-17T12:51:28;-2.90;99.90
35027;DHT22;60696;51.426;6.934;2022-12-17T12:54:50;-2.90;99.90
35027;DHT22;60696;51.426;6.934;2022-12-17T13:11:42;-2.40;99.90
35027;DHT22;60696;51.426;6.934;2022-12-17T13:14:18;-2.30;99.90
35027;DHT22;60696;51.426;6.934;2022-12-17T13:22:27;-2.30;99.90
35027;DHT22;60696;51.426;6.934;2022-12-17T13:27:39;-2.10;99.90
35027;DHT22;60696;51.426;6.934;2022-12-17T13:30:18;-2.20;99.90
35027;DHT22;60696;51.426;6.934;2022-12-17T13:38:20;-2.00;99.90
35027;DHT22;60696;51.426;6.934;2022-12-17T13:41:13;-2.00;99.90
35027;DHT22;60696;51.426;6.934;2022-12-17T13:43:52;-2.00;99.90
35027;DHT22;60696;51.426;6.934;2022-12-17T13:46:34;-1.90;99.90
35027;DHT22;60696;51.426;6.934;2022-12-17T13:49:05;-2.00;99.90
35027;DHT22;60696;51.426;6.934;2022-12-17T13:51:40;-2.00;99.90
35027;DHT22;60696;51.426;6.934;2022-12-17T13:54:18;-2.00;99.90
35027;DHT22;60696;51.426;6.934;2022-12-17T13:56:44;-2.00;99.90
35027;DHT22;60696;51.426;6.934;2022-12-17T13:59:17;-2.00;99.90
35027;DHT22;60696;51.426;6.934;2022-12-17T14:01:50;-2.00;99.90
35027;DHT22;60696;51.426;6.934;2022-12-17T14:04:23;-2.00;99.90
35027;DHT22;60696;51.426;6.934;2022-12-17T14:06:49;-2.00;99.90
35027;DHT22;60696;51.426;6.934;2022-12-17T14:09:16;-2.00;99.90
35027;DHT22;60696;51.426;6.934;2022-12-17T14:11:43;-2.10;99.90
35027;DHT22;60696;51.426;6.934;2022-12-17T14:14:31;-2.10;99.90
35027;DHT22;60696;51.426;6.934;2022-12-17T14:16:57;-2.10;99.90
35027;DHT22;60696;51.426;6.934;2022-12-17T14:19:24;-2.20;99.90
35027;DHT22;60696;51.426;6.934;2022-12-17T14:21:50;-2.20;99.90
35027;DHT22;60696;51.426;6.934;2022-12-17T14:24:19;-2.10;99.90
35027;DHT22;60696;51.426;6.934;2022-12-17T14:26:53;-2.20;99.90
35027;DHT22;60696;51.426;6.934;2022-12-17T14:29:24;-2.20;99.90
35027;DHT22;60696;51.426;6.934;2022-12-17T14:31:55;-2.30;99.90
35027;DHT22;60696;51.426;6.934;2022-12-17T14:34:22;-2.30;99.90
35027;DHT22;60696;51.426;6.934;2022-12-17T14:36:54;-2.30;99.90
35027;DHT22;60696;51.426;6.934;2022-12-17T14:39:27;-2.30;99.90
35027;DHT22;60696;51.426;6.934;2022-12-17T14:41:55;-2.40;99.90
35027;DHT22;60696;51.426;6.934;2022-12-17T14:44:49;-2.40;99.90
35027;DHT22;60696;51.426;6.934;2022-12-17T14:47:19;-2.40;99.90
35027;DHT22;60696;51.426;6.934;2022-12-17T14:49:59;-2.40;99.90
35027;DHT22;60696;51.426;6.934;2022-12-17T14:52:40;-2.50;99.90
35027;DHT22;60696;51.426;6.934;2022-12-17T14:58:26;-2.60;99.90
35027;DHT22;60696;51.426;6.934;2022-12-17T15:01:06;-2.70;99.90
35027;DHT22;60696;51.426;6.934;2022-12-17T15:03:37;-2.70;99.90
35027;DHT22;60696;51.426;6.934;2022-12-17T15:06:06;-2.70;99.90
35027;DHT22;60696;51.426;6.934;2022-12-17T15:08:44;-2.80;99.90
35027;DHT22;60696;51.426;6.934;2022-12-17T15:11:12;-2.90;99.90
35027;DHT22;60696;51.426;6.934;2022-12-17T15:13:38;-3.00;99.90
35027;DHT22;60696;51.426;6.934;2022-12-17T15:16:04;-3.00;99.90
35027;DHT22;60696;51.426;6.934;2022-12-17T15:18:29;-3.00;99.90
35027;DHT22;60696;51.426;6.934;2022-12-17T15:20:55;-3.10;99.90
35027;DHT22;60696;51.426;6.934;2022-12-17T15:23:22;-3.10;99.90
35027;DHT22;60696;51.426;6.934;2022-12-17T15:25:50;-3.30;99.90
35027;DHT22;60696;51.426;6.934;2022-12-17T15:28:16;-3.40;99.90
35027;DHT22;60696;51.426;6.934;2022-12-17T15:30:43;-3.50;99.90
35027;DHT22;60696;51.426;6.934;2022-12-17T15:33:09;-3.50;99.90
35027;DHT22;60696;51.426;6.934;2022-12-17T15:35:35;-3.60;99.90
35027;DHT22;60696;51.426;6.934;2022-12-17T15:38:01;-3.60;99.90
35027;DHT22;60696;51.426;6.934;2022-12-17T15:40:27;-3.60;99.90
35027;DHT22;60696;51.426;6.934;2022-12-17T15:42:52;-3.70;99.90
35027;DHT22;60696;51.426;6.934;2022-12-17T15:45:41;-3.70;99.90
35027;DHT22;60696;51.426;6.934;2022-12-17T15:48:08;-3.80;99.90
35027;DHT22;60696;51.426;6.934;2022-12-17T15:50:34;-3.80;99.90
35027;DHT22;60696;51.426;6.934;2022-12-17T15:53:00;-3.80;99.90
35027;DHT22;60696;51.426;6.934;2022-12-17T15:55:26;-3.80;99.90
35027;DHT22;60696;51.426;6.934;2022-12-17T15:57:51;-3.90;99.90
35027;DHT22;60696;51.426;6.934;2022-12-17T16:00:17;-3.90;99.90
35027;DHT22;60696;51.426;6.934;2022-12-17T16:02:43;-3.80;99.90
35027;DHT22;60696;51.426;6.934;2022-12-17T16:05:08;-3.80;99.90
35027;DHT22;60696;51.426;6.934;2022-12-17T16:07:34;-3.90;99.90
35027;DHT22;60696;51.426;6.934;2022-12-17T16:10:01;-3.90;99.90
35027;DHT22;60696;51.426;6.934;2022-12-17T16:12:27;-3.90;99.90
35027;DHT22;60696;51.426;6.934;2022-12-17T16:14:52;-3.90;99.90
35027;DHT22;60696;51.426;6.934;2022-12-17T16:17:18;-4.00;99.90
35027;DHT22;60696;51.426;6.934;2022-12-17T16:19:43;-4.00;99.90
35027;DHT22;60696;51.426;6.934;2022-12-17T16:22:09;-4.00;99.90
35027;DHT22;60696;51.426;6.934;2022-12-17T16:24:34;-4.10;99.90
35027;DHT22;60696;51.426;6.934;2022-12-17T16:27:00;-4.10;99.90
35027;DHT22;60696;51.426;6.934;2022-12-17T16:29:26;-4.10;99.90
35027;DHT22;60696;51.426;6.934;2022-12-17T16:31:51;-4.20;99.90
35027;DHT22;60696;51.426;6.934;2022-12-17T16:34:17;-4.20;99.90
35027;DHT22;60696;51.426;6.934;2022-12-17T16:36:42;-4.20;99.90
35027;DHT22;60696;51.426;6.934;2022-12-17T16:39:14;-4.20;99.90
35027;DHT22;60696;51.426;6.934;2022-12-17T16:41:40;-4.20;99.90
35027;DHT22;60696;51.426;6.934;2022-12-17T16:44:05;-4.10;99.90
35027;DHT22;60696;51.426;6.934;2022-12-17T16:46:33;-4.10;99.90
35027;DHT22;60696;51.426;6.934;2022-12-17T16:49:12;-4.10;99.90
35027;DHT22;60696;51.426;6.934;2022-12-17T16:51:39;-4.10;99.90
35027;DHT22;60696;51.426;6.934;2022-12-17T16:54:15;-4.10;99.90
35027;DHT22;60696;51.426;6.934;2022-12-17T16:56:42;-4.10;99.90
35027;DHT22;60696;51.426;6.934;2022-12-17T16:59:09;-4.10;99.90
35027;DHT22;60696;51.426;6.934;2022-12-17T17:01:38;-4.20;99.90
35027;DHT22;60696;51.426;6.934;2022-12-17T17:04:05;-4.20;99.90
35027;DHT22;60696;51.426;6.934;2022-12-17T17:06:31;-4.20;99.90
35027;DHT22;60696;51.426;6.934;2022-12-17T17:08:58;-4.30;99.90
35027;DHT22;60696;51.426;6.934;2022-12-17T17:11:24;-4.30;99.90
35027;DHT22;60696;51.426;6.934;2022-12-17T17:13:52;-4.30;99.90
35027;DHT22;60696;51.426;6.934;2022-12-17T17:16:20;-4.30;99.90
35027;DHT22;60696;51.426;6.934;2022-12-17T17:18:46;-4.20;99.90
35027;DHT22;60696;51.426;6.934;2022-12-17T17:21:20;-4.10;99.90
35027;DHT22;60696;51.426;6.934;2022-12-17T17:23:54;-4.10;99.90
35027;DHT22;60696;51.426;6.934;2022-12-17T17:26:19;-4.00;99.90
35027;DHT22;60696;51.426;6.934;2022-12-17T17:28:46;-3.90;99.90
35027;DHT22;60696;51.426;6.934;2022-12-17T17:31:13;-3.90;99.90
35027;DHT22;60696;51.426;6.934;2022-12-17T17:33:44;-3.90;99.90
35027;DHT22;60696;51.426;6.934;2022-12-17T17:38:47;-4.00;99.90
35027;DHT22;60696;51.426;6.934;2022-12-17T17:41:16;-4.00;99.90
35027;DHT22;60696;51.426;6.934;2022-12-17T17:43:42;-4.00;99.90
35027;DHT22;60696;51.426;6.934;2022-12-17T17:46:10;-4.00;99.90
35027;DHT22;60696;51.426;6.934;2022-12-17T17:48:37;-4.00;99.90
35027;DHT22;60696;51.426;6.934;2022-12-17T17:51:08;-4.00;99.90
35027;DHT22;60696;51.426;6.934;2022-12-17T17:53:36;-4.10;99.90
35027;DHT22;60696;51.426;6.934;2022-12-17T17:56:07;-4.00;99.90
35027;DHT22;60696;51.426;6.934;2022-12-17T17:58:33;-3.90;99.90
35027;DHT22;60696;51.426;6.934;2022-12-17T18:01:06;-3.90;99.90
35027;DHT22;60696;51.426;6.934;2022-12-17T18:03:32;-3.80;99.90
35027;DHT22;60696;51.426;6.934;2022-12-17T18:06:02;-3.70;99.90
35027;DHT22;60696;51.426;6.934;2022-12-17T18:08:29;-3.60;99.90
35027;DHT22;60696;51.426;6.934;2022-12-17T18:10:58;-3.50;99.90
35027;DHT22;60696;51.426;6.934;2022-12-17T18:13:24;-3.50;99.90
35027;DHT22;60696;51.426;6.934;2022-12-17T18:16:09;-3.40;99.90
35027;DHT22;60696;51.426;6.934;2022-12-17T18:18:35;-3.40;99.90
35027;DHT22;60696;51.426;6.934;2022-12-17T18:21:09;-3.50;99.90
35027;DHT22;60696;51.426;6.934;2022-12-17T18:23:36;-3.50;99.90
35027;DHT22;60696;51.426;6.934;2022-12-17T18:26:09;-3.60;99.90
35027;DHT22;60696;51.426;6.934;2022-12-17T18:28:36;-3.50;99.90
35027;DHT22;60696;51.426;6.934;2022-12-17T18:31:10;-3.40;99.90
35027;DHT22;60696;51.426;6.934;2022-12-17T18:33:38;-3.40;99.90